Altus, AR

4:04 AM CDT on July 25, 2014 (GMT -0500)
RVO CLARKSVILLE 64 W. (KARCLARK3) Elev 394 ft | 35.46 °N, 93.53 °W | Change Station

Current weather conditions updated 22 seconds ago

Partly Cloudy
Partly Cloudy
69.2 °F
Feels Like 69.2 °F
N
0.0
Wind Variable Wind from East
Gusts 0.0 mph

Today is forecast to be Warmer than yesterday.

Today
High -- | Low -- °F
--% Chance of Precip.
Yesterday
High -- | Low -- °F
Precip. -- in
6:18 AM 8:24 PM
Waning Crescent, 2% visible
Pressure 29.99 in
Visibility 6.0 miles
Clouds Few 3600 ft
Dew Point 66 °F
Humidity 88%
Rainfall 0.00 in
Snow Depth Not available.
UV 0.0 out of 12
Pollen 4.60 out of 12
Air Quality Not available.
Flu Activity Not available.
METAR KFSM 250853Z AUTO 06005KT 6SM BR FEW036 22/21 A3000 RMK AO2 SLP154 T02220211 58005

More Conditions Fewer Conditions

Pressure 29.99 in
Visibility 6.0 miles
Clouds Few 3600 ft
Dew Point 66 °F
Humidity 88%
Rainfall 0.00 in
Snow Depth Not available.
UV 0.0 out of 12
Pollen 4.60 out of 12
Air Quality Not available.
Flu Activity Not available.
METAR KFSM 250853Z AUTO 06005KT 6SM BR FEW036 22/21 A3000 RMK AO2 SLP154 T02220211 58005

More Conditions Fewer Conditions

10-Day Weather Forecast

Almanac

Astronomy

Jul. 25, 2014 Rise Set
Actual Time 6:18 AM CDT 8:24 PM CDT
Civil Twilight 5:50 AM CDT 8:52 PM CDT
Nautical Twilight 5:15 AM CDT 9:27 PM CDT
Astronomical Twilight 4:37 AM CDT 10:04 PM CDT
Moon 5:17 AM CDT 7:23 PM CDT
Length of Visible Light 15h 02m
Length of Day
14h 05m
Tomorrow will be 1m 30s shorter.
Waning Crescent, 2% of the Moon is Illuminated
Today
Waning Crescent
Jul 26
New
Aug 3
First Quarter
Aug 10
Full
Aug 17
Last Quarter

Today's Extremes

State Highs State Lows

Community

WunderPhotos

Upload Photos

1,737,276 photos uploaded!

Nearby

Snow Depth

Station Depth Elevation
No new snow has been reported.

Earthquake Activity

City Distance Mag. Time & Date
No recent earthquake activity has been reported nearby.
Minimum magnitude displayed is 2.5.

Coastal Water Temperatures

Place Temperature
No Stations Reporting

Nearby Weather Stations

Station Location Temp. Heat Index Dew Point Humidity Wind Precip. Elev Updated Type
MesoWest OZARK , Ozark, AR 79 °F 77 °F - - North  at  - 0.00 in / hr 392 ft 1:35 AM CDT MADIS
RVO CLARKSVILLE 64 W., Clarksville, AR 69.2 °F - 66 °F 88% East  at  0.0 mph 0.00 in / hr 394 ft 4:04 AM CDT Rapid Fire
Booneville Municipal Airport, Booneville, AR 71.2 °F - 69 °F 94% ENE  at  3.0 mph 0.00 in / hr 460 ft 3:33 AM CDT Normal
The GRAPHIC(West Main), Clarksville, AR 68.8 °F - 64 °F 86% North  at  0.0 mph 0.00 in / hr 410 ft 4:04 AM CDT Rapid Fire
MesoWest ALMA , Dyer, AR 67 °F - - - North  at  - 0.00 in / hr 426 ft 1:50 AM CDT MADIS
HWY. 255, Lavaca, AR 71.6 °F - 71 °F 99% South  at  1.2 mph 0.00 in / hr 389 ft 4:04 AM CDT Rapid Fire
Mulberry Mountain, Ozark, AR 68.3 °F - 66 °F 92% ENE  at  4.0 mph 0.00 in / hr 1640 ft 3:51 AM CDT Normal

Show More Stations Show Fewer Stations